createdAt,value
2022-09-23T00:02:03.806Z,8.14
2022-09-23T00:04:36.035Z,8.08
2022-09-23T00:07:08.187Z,8.04
2022-09-23T00:09:40.380Z,7.99
2022-09-23T00:12:12.954Z,7.95
2022-09-23T00:14:45.091Z,7.92
2022-09-23T00:17:17.176Z,7.88
2022-09-23T00:19:49.454Z,7.85
2022-09-23T00:22:21.499Z,7.82
2022-09-23T00:24:53.695Z,7.79
2022-09-23T00:27:26.681Z,7.77
2022-09-23T00:29:58.695Z,7.75
2022-09-23T00:32:30.740Z,7.73
2022-09-23T00:35:04.255Z,7.70
2022-09-23T00:37:37.357Z,7.68
2022-09-23T00:40:13.394Z,7.65
2022-09-23T00:42:52.244Z,7.62
2022-09-23T00:45:24.908Z,7.60
2022-09-23T00:48:01.489Z,7.58
2022-09-23T00:50:35.184Z,7.58
2022-09-23T00:53:11.524Z,7.55
2022-09-23T00:55:47.651Z,7.52
2022-09-23T00:58:24.751Z,7.50
2022-09-23T01:00:59.561Z,7.49
2022-09-23T01:03:32.192Z,7.48
2022-09-23T01:06:04.790Z,7.49
2022-09-23T01:08:37.813Z,7.50
2022-09-23T01:11:30.529Z,7.53
2022-09-23T01:14:26.377Z,7.58
2022-09-23T01:17:05.219Z,7.62
2022-09-23T01:20:03.594Z,7.64
2022-09-23T01:22:43.130Z,7.65
2022-09-23T01:25:31.762Z,7.68
2022-09-23T01:28:26.676Z,7.71
2022-09-23T01:31:06.721Z,7.75
2022-09-23T01:33:48.326Z,7.78
2022-09-23T01:36:25.098Z,7.82
2022-09-23T01:39:02.327Z,7.85
2022-09-23T01:41:55.574Z,7.88
2022-09-23T01:44:36.350Z,7.90
2022-09-23T01:47:14.353Z,7.93
2022-09-23T01:49:51.945Z,7.96
2022-09-23T01:52:28.715Z,7.97
2022-09-23T01:55:05.257Z,8.00
2022-09-23T01:57:41.763Z,8.01
2022-09-23T02:00:17.718Z,8.02
2022-09-23T02:02:53.784Z,8.02
2022-09-23T02:05:30.931Z,8.03
2022-09-23T02:08:04.337Z,8.04
2022-09-23T02:10:42.173Z,8.03
2022-09-23T02:13:20.621Z,8.03
2022-09-23T02:15:56.312Z,8.02
2022-09-23T02:18:32.747Z,8.02
2022-09-23T02:21:09.926Z,7.99
2022-09-23T02:23:47.082Z,7.97
2022-09-23T02:26:23.998Z,7.94
2022-09-23T02:29:02.545Z,7.93
2022-09-23T02:31:41.168Z,7.89
2022-09-23T02:34:22.231Z,7.87
2022-09-23T02:37:06.705Z,7.84
2022-09-23T02:39:49.426Z,7.83
2022-09-23T02:42:26.198Z,7.81
2022-09-23T02:44:56.741Z,7.78
2022-09-23T02:47:33.557Z,7.74
2022-09-23T02:50:06.863Z,7.70
2022-09-23T02:52:39.168Z,7.69
2022-09-23T02:55:16.115Z,7.70
2022-09-23T02:57:46.995Z,7.70
2022-09-23T03:00:19.501Z,7.69
2022-09-23T03:03:17.349Z,7.68
2022-09-23T03:05:55.519Z,7.67
2022-09-23T03:08:43.044Z,7.66
2022-09-23T03:11:17.643Z,7.65
2022-09-23T03:14:06.765Z,7.66
2022-09-23T03:16:46.498Z,7.68
2022-09-23T03:19:28.681Z,7.70
2022-09-23T03:22:07.231Z,7.71
2022-09-23T03:24:42.944Z,7.70
2022-09-23T03:27:19.665Z,7.68
2022-09-23T03:29:54.593Z,7.68
2022-09-23T03:32:30.163Z,7.67
2022-09-23T03:35:04.909Z,7.68
2022-09-23T03:37:41.288Z,7.69
2022-09-23T03:40:19.463Z,7.68
2022-09-23T03:42:53.490Z,7.67
2022-09-23T03:45:35.475Z,7.67
2022-09-23T03:48:07.969Z,7.67
2022-09-23T03:50:40.188Z,7.66
2022-09-23T03:53:14.380Z,7.64
2022-09-23T03:55:47.259Z,7.63
2022-09-23T03:58:19.292Z,7.63
2022-09-23T04:00:54.823Z,7.60
2022-09-23T04:03:28.252Z,7.58
2022-09-23T04:06:00.281Z,7.57
2022-09-23T04:08:32.362Z,7.54
2022-09-23T04:11:05.501Z,7.51
2022-09-23T04:13:37.851Z,7.50
2022-09-23T04:16:10.233Z,7.48
2022-09-23T04:18:42.355Z,7.45
2022-09-23T04:21:14.531Z,7.41
2022-09-23T04:23:47.185Z,7.36
2022-09-23T04:26:19.448Z,7.33
2022-09-23T04:28:51.518Z,7.29
2022-09-23T04:31:23.957Z,7.25
2022-09-23T04:33:57.175Z,7.22
2022-09-23T04:36:30.445Z,7.18
2022-09-23T04:39:03.821Z,7.13
2022-09-23T04:41:36.789Z,7.07
2022-09-23T04:44:09.103Z,7.02
2022-09-23T04:46:41.685Z,6.98
2022-09-23T04:49:14.252Z,6.96
2022-09-23T04:51:46.332Z,6.92
2022-09-23T04:54:19.078Z,6.89
2022-09-23T04:56:51.089Z,6.87
2022-09-23T04:59:23.853Z,6.82
2022-09-23T05:01:56.039Z,6.80
2022-09-23T05:04:28.089Z,6.78
2022-09-23T05:07:03.240Z,6.79
2022-09-23T05:09:35.881Z,6.80
2022-09-23T05:12:08.639Z,6.80
2022-09-23T05:14:40.672Z,6.81
2022-09-23T05:17:13.052Z,6.84
2022-09-23T05:19:45.137Z,6.89
2022-09-23T05:22:17.148Z,6.95
2022-09-23T05:24:49.197Z,6.99
2022-09-23T05:27:21.402Z,7.04
2022-09-23T05:29:53.383Z,7.08
2022-09-23T05:32:26.458Z,7.13
2022-09-23T05:34:58.924Z,7.23
2022-09-23T05:37:33.210Z,7.40
2022-09-23T05:40:06.075Z,7.58
2022-09-23T05:42:38.278Z,7.83
2022-09-23T05:45:11.455Z,8.15
2022-09-23T05:47:44.109Z,8.55
2022-09-23T05:50:16.575Z,8.89
2022-09-23T05:52:48.650Z,9.26
2022-09-23T05:55:20.794Z,9.36
2022-09-23T05:57:52.835Z,9.37
2022-09-23T06:00:26.106Z,9.39
2022-09-23T06:02:58.368Z,9.45
2022-09-23T06:05:31.576Z,9.53
2022-09-23T06:08:04.046Z,9.68
2022-09-23T06:10:39.541Z,10.00
2022-09-23T06:13:12.915Z,10.38
2022-09-23T06:15:45.859Z,10.74
2022-09-23T06:18:18.718Z,11.14
2022-09-23T06:20:51.070Z,11.47
2022-09-23T06:23:26.343Z,11.64
2022-09-23T06:26:03.061Z,11.77
2022-09-23T06:28:36.623Z,12.29
2022-09-23T06:31:13.613Z,12.68
2022-09-23T06:33:53.001Z,13.05
2022-09-23T06:36:40.642Z,13.38
2022-09-23T06:39:16.558Z,13.56
2022-09-23T06:41:48.615Z,13.77
2022-09-23T06:44:21.376Z,14.42
2022-09-23T06:46:53.549Z,15.57
2022-09-23T06:49:26.691Z,16.41
2022-09-23T06:51:58.750Z,17.14
2022-09-23T06:54:31.514Z,17.98
2022-09-23T06:57:03.760Z,18.86
2022-09-23T06:59:36.005Z,19.67
2022-09-23T07:02:08.811Z,20.52
2022-09-23T07:04:41.394Z,21.22
2022-09-23T07:07:14.260Z,22.03
2022-09-23T07:09:46.444Z,22.84
2022-09-23T07:12:18.676Z,23.23
2022-09-23T07:14:51.057Z,23.41
2022-09-23T07:17:24.317Z,23.54
2022-09-23T07:19:56.392Z,23.92
2022-09-23T07:22:28.866Z,24.07
2022-09-23T07:25:00.935Z,24.48
2022-09-23T07:27:33.566Z,25.13
2022-09-23T07:30:08.704Z,25.57
2022-09-23T07:32:48.670Z,25.77
2022-09-23T07:35:21.554Z,26.04
2022-09-23T07:37:54.277Z,26.29
2022-09-23T07:40:26.571Z,26.27
2022-09-23T07:42:59.695Z,26.52
2022-09-23T07:45:33.139Z,26.65
2022-09-23T07:48:05.836Z,26.98
2022-09-23T07:50:40.088Z,27.29
2022-09-23T07:53:13.670Z,27.27
2022-09-23T07:55:52.459Z,27.44
2022-09-23T07:58:25.758Z,27.47
2022-09-23T08:01:02.650Z,27.46
2022-09-23T08:03:35.232Z,27.25
2022-09-23T08:06:10.361Z,26.93
2022-09-23T08:08:44.632Z,26.79
2022-09-23T08:11:16.761Z,26.86
2022-09-23T08:13:48.914Z,27.20
2022-09-23T08:16:21.379Z,27.51
2022-09-23T08:18:53.755Z,27.57
2022-09-23T08:21:26.015Z,27.60
2022-09-23T08:23:58.690Z,27.67
2022-09-23T08:26:34.387Z,27.98
2022-09-23T08:29:09.881Z,28.16
2022-09-23T08:31:42.291Z,28.37
2022-09-23T08:34:14.976Z,28.55
2022-09-23T08:36:48.214Z,28.69
2022-09-23T08:39:22.998Z,28.78
2022-09-23T08:42:08.743Z,28.74
2022-09-23T08:44:49.416Z,28.81
2022-09-23T08:47:26.089Z,29.16
2022-09-23T08:50:04.199Z,28.71
2022-09-23T08:52:41.194Z,27.78
2022-09-23T08:55:16.055Z,27.55
2022-09-23T08:58:23.843Z,27.89
2022-09-23T09:01:04.384Z,27.76
2022-09-23T09:03:41.903Z,27.40
2022-09-23T09:06:20.015Z,27.39
2022-09-23T09:08:58.229Z,27.71
2022-09-23T09:11:36.928Z,27.93
2022-09-23T09:14:18.894Z,28.28
2022-09-23T09:17:00.649Z,27.86
2022-09-23T09:19:56.598Z,26.94
2022-09-23T09:22:51.015Z,26.01
2022-09-23T09:25:33.506Z,25.23
2022-09-23T09:28:15.878Z,24.47
2022-09-23T09:30:54.223Z,24.34
2022-09-23T09:33:32.401Z,24.78
2022-09-23T09:36:14.464Z,25.24
2022-09-23T09:38:46.470Z,24.86
2022-09-23T09:41:24.784Z,24.19
2022-09-23T09:43:59.418Z,24.12
2022-09-23T09:46:48.111Z,24.43
2022-09-23T09:49:30.232Z,25.07
2022-09-23T09:52:24.196Z,25.45
2022-09-23T09:55:00.661Z,25.59
2022-09-23T09:57:39.811Z,25.47
2022-09-23T10:00:43.082Z,24.94
2022-09-23T10:03:31.665Z,24.53
2022-09-23T10:06:17.459Z,24.52
2022-09-23T10:09:14.783Z,24.51
2022-09-23T10:12:11.607Z,24.54
2022-09-23T10:14:44.087Z,24.72
2022-09-23T10:17:21.382Z,24.90
2022-09-23T10:20:00.968Z,25.06
2022-09-23T10:22:37.477Z,25.16
2022-09-23T10:25:17.772Z,25.14
2022-09-23T10:27:49.921Z,24.71
2022-09-23T10:30:27.284Z,24.15
2022-09-23T10:32:59.506Z,23.91
2022-09-23T10:35:33.665Z,24.16
2022-09-23T10:38:05.926Z,24.11
2022-09-23T10:40:58.648Z,23.63
2022-09-23T10:43:59.874Z,23.16
2022-09-23T10:46:41.255Z,23.14
2022-09-23T10:49:56.982Z,23.20
2022-09-23T10:52:58.127Z,22.96
2022-09-23T10:55:45.084Z,23.04
2022-09-23T10:58:33.263Z,23.12
2022-09-23T11:01:17.184Z,23.05
2022-09-23T11:04:06.777Z,22.57
2022-09-23T11:06:54.050Z,22.23
2022-09-23T11:09:34.772Z,22.28
2022-09-23T11:12:18.882Z,22.41
2022-09-23T11:15:19.204Z,22.62
2022-09-23T11:18:18.911Z,22.74
2022-09-23T11:21:00.782Z,22.33
2022-09-23T11:23:48.477Z,21.84
2022-09-23T11:26:33.309Z,21.33
2022-09-23T11:29:42.692Z,20.93
2022-09-23T11:32:35.727Z,20.83
2022-09-23T11:35:19.483Z,20.92
2022-09-23T11:37:55.105Z,20.99
2022-09-23T11:40:33.719Z,21.08
2022-09-23T11:43:16.071Z,21.29
2022-09-23T11:45:53.098Z,21.40
2022-09-23T11:48:31.490Z,21.52
2022-09-23T11:51:08.190Z,21.65
2022-09-23T11:53:48.821Z,21.79
2022-09-23T11:56:35.066Z,21.79
2022-09-23T11:59:17.473Z,21.73
2022-09-23T12:01:55.099Z,21.59
2022-09-23T12:04:35.733Z,21.27
2022-09-23T12:07:14.969Z,20.77
2022-09-23T12:10:03.631Z,20.32
2022-09-23T12:12:42.966Z,19.83
2022-09-23T12:15:28.090Z,19.45
2022-09-23T12:18:23.593Z,19.14
2022-09-23T12:21:38.688Z,19.04
2022-09-23T12:24:27.982Z,19.12
2022-09-23T12:27:05.723Z,19.20
2022-09-23T12:29:41.050Z,19.23
2022-09-23T12:32:20.321Z,19.27
2022-09-23T12:34:53.924Z,19.39
2022-09-23T12:37:29.793Z,19.52
2022-09-23T12:40:19.146Z,19.64
2022-09-23T12:42:52.168Z,19.79
2022-09-23T12:45:41.763Z,19.92
2022-09-23T12:49:02.133Z,19.90
2022-09-23T12:51:35.677Z,19.68
2022-09-23T12:54:25.545Z,19.52
2022-09-23T12:57:05.540Z,19.43
2022-09-23T13:00:16.298Z,19.42
2022-09-23T13:03:17.253Z,19.42
2022-09-23T13:06:10.367Z,19.27
2022-09-23T13:08:44.039Z,19.10
2022-09-23T13:11:24.408Z,18.92
2022-09-23T13:14:00.703Z,18.71
2022-09-23T13:16:35.849Z,18.51
2022-09-23T13:19:28.445Z,18.27
2022-09-23T13:22:09.290Z,18.05
2022-09-23T13:24:45.621Z,17.89
2022-09-23T13:27:24.005Z,17.76
2022-09-23T13:30:00.028Z,17.61
2022-09-23T13:32:35.615Z,17.44
2022-09-23T13:35:17.958Z,17.30
2022-09-23T13:37:51.090Z,17.17
2022-09-23T13:40:28.614Z,17.07
2022-09-23T13:43:03.330Z,16.96
2022-09-23T13:45:43.371Z,16.84
2022-09-23T13:48:17.662Z,16.73
2022-09-23T13:50:53.431Z,16.63
2022-09-23T13:53:29.070Z,16.53
2022-09-23T13:56:07.342Z,16.45
2022-09-23T13:58:39.620Z,16.42
2022-09-23T14:01:22.545Z,16.48
2022-09-23T14:03:54.714Z,16.59
2022-09-23T14:06:28.400Z,16.62
2022-09-23T14:09:02.636Z,16.58
2022-09-23T14:11:37.424Z,16.49
2022-09-23T14:14:14.668Z,16.37
2022-09-23T14:16:49.761Z,16.23
2022-09-23T14:19:24.486Z,16.14
2022-09-23T14:21:57.662Z,16.04
2022-09-23T14:24:35.899Z,15.98
2022-09-23T14:27:33.814Z,15.95
2022-09-23T14:30:20.539Z,15.97
2022-09-23T14:32:53.831Z,15.99
2022-09-23T14:35:29.760Z,16.03
2022-09-23T14:38:19.335Z,16.06
2022-09-23T14:41:15.605Z,16.13
2022-09-23T14:43:53.067Z,16.18
2022-09-23T14:46:27.511Z,16.18
2022-09-23T14:49:05.797Z,16.19
2022-09-23T14:51:53.844Z,16.20
2022-09-23T14:54:45.220Z,16.23
2022-09-23T14:57:37.190Z,16.24
2022-09-23T15:00:18.663Z,16.22
2022-09-23T15:03:02.052Z,16.16
2022-09-23T15:05:45.693Z,16.09
2022-09-23T15:08:22.172Z,16.00
2022-09-23T15:10:55.219Z,15.94
2022-09-23T15:13:31.550Z,15.87
2022-09-23T15:16:05.754Z,15.83
2022-09-23T15:18:41.341Z,15.76
2022-09-23T15:21:16.535Z,15.69
2022-09-23T15:23:51.353Z,15.62
2022-09-23T15:26:25.877Z,15.54
2022-09-23T15:29:00.049Z,15.45
2022-09-23T15:31:33.105Z,15.37
2022-09-23T15:34:06.206Z,15.29
2022-09-23T15:36:38.787Z,15.21
2022-09-23T15:39:14.612Z,15.15
2022-09-23T15:41:47.319Z,15.08
2022-09-23T15:44:21.819Z,15.03
2022-09-23T15:46:56.039Z,14.98
2022-09-23T15:49:33.501Z,14.92
2022-09-23T15:52:09.801Z,14.86
2022-09-23T15:54:42.499Z,14.79
2022-09-23T15:57:14.661Z,14.71
2022-09-23T15:59:46.991Z,14.64
2022-09-23T16:02:25.007Z,14.56
2022-09-23T16:04:57.376Z,14.49
2022-09-23T16:07:29.782Z,14.42
2022-09-23T16:10:01.953Z,14.34
2022-09-23T16:12:34.734Z,14.28
2022-09-23T16:15:12.197Z,14.23
2022-09-23T16:17:45.524Z,14.18
2022-09-23T16:20:18.857Z,14.13
2022-09-23T16:22:57.532Z,14.07
2022-09-23T16:25:32.025Z,14.00
2022-09-23T16:28:05.150Z,13.93
2022-09-23T16:30:37.897Z,13.87
2022-09-23T16:33:10.055Z,13.84
2022-09-23T16:35:42.391Z,13.78
2022-09-23T16:38:14.821Z,13.74
2022-09-23T16:40:47.409Z,13.69
2022-09-23T16:43:19.974Z,13.62
2022-09-23T16:45:52.227Z,13.56
2022-09-23T16:48:24.914Z,13.51
2022-09-23T16:50:57.038Z,13.46
2022-09-23T16:53:31.703Z,13.40
2022-09-23T16:56:09.504Z,13.35
2022-09-23T16:58:42.643Z,13.29
2022-09-23T17:01:36.368Z,13.24
2022-09-23T17:04:10.708Z,13.18
2022-09-23T17:06:50.364Z,13.12
2022-09-23T17:09:29.278Z,13.05
2022-09-23T17:12:12.543Z,12.96
2022-09-23T17:14:44.732Z,12.89
2022-09-23T17:17:17.058Z,12.83
2022-09-23T17:19:49.504Z,12.79
2022-09-23T17:22:21.640Z,12.72
2022-09-23T17:24:53.720Z,12.69
2022-09-23T17:27:26.080Z,12.65
2022-09-23T17:29:58.264Z,12.61
2022-09-23T17:32:30.846Z,12.60
2022-09-23T17:35:04.885Z,12.59
2022-09-23T17:37:37.118Z,12.60
2022-09-23T17:40:11.070Z,12.61
2022-09-23T17:42:44.763Z,12.63
2022-09-23T17:45:17.380Z,12.64
2022-09-23T17:47:52.428Z,12.65
2022-09-23T17:50:24.515Z,12.65
2022-09-23T17:52:56.988Z,12.67
2022-09-23T17:55:29.183Z,12.68
2022-09-23T17:58:01.682Z,12.68
2022-09-23T18:00:34.020Z,12.68
2022-09-23T18:03:06.639Z,12.69
2022-09-23T18:05:38.779Z,12.70
2022-09-23T18:08:10.852Z,12.73
2022-09-23T18:10:42.939Z,12.75
2022-09-23T18:13:15.180Z,12.77
2022-09-23T18:15:47.331Z,12.79
2022-09-23T18:18:19.850Z,12.79
2022-09-23T18:20:51.923Z,12.80
2022-09-23T18:23:26.074Z,12.80
2022-09-23T18:25:58.500Z,12.80
2022-09-23T18:28:34.989Z,12.80
2022-09-23T18:31:07.647Z,12.81
2022-09-23T18:33:40.284Z,12.81
2022-09-23T18:36:14.355Z,12.81
2022-09-23T18:38:47.285Z,12.80
2022-09-23T18:41:20.104Z,12.80
2022-09-23T18:43:53.284Z,12.80
2022-09-23T18:46:29.499Z,12.79
2022-09-23T18:49:19.683Z,12.77
2022-09-23T18:51:55.772Z,12.75
2022-09-23T18:54:31.609Z,12.73
2022-09-23T18:57:03.655Z,12.71
2022-09-23T18:59:36.273Z,12.70
2022-09-23T19:02:09.574Z,12.69
2022-09-23T19:04:41.795Z,12.68
2022-09-23T19:07:15.434Z,12.67
2022-09-23T19:09:47.827Z,12.66
2022-09-23T19:12:22.211Z,12.67
2022-09-23T19:14:54.929Z,12.67
2022-09-23T19:17:27.081Z,12.69
2022-09-23T19:19:59.219Z,12.68
2022-09-23T19:22:32.914Z,12.67
2022-09-23T19:25:05.436Z,12.65
2022-09-23T19:27:39.349Z,12.63
2022-09-23T19:30:13.728Z,12.63
2022-09-23T19:32:49.050Z,12.61
2022-09-23T19:35:21.774Z,12.60
2022-09-23T19:37:57.688Z,12.59
2022-09-23T19:40:30.774Z,12.58
2022-09-23T19:43:04.630Z,12.58
2022-09-23T19:45:38.597Z,12.58
2022-09-23T19:48:10.757Z,12.54
2022-09-23T19:50:43.132Z,12.54
2022-09-23T19:53:15.556Z,12.52
2022-09-23T19:55:49.690Z,12.50
2022-09-23T19:58:22.156Z,12.48
2022-09-23T20:00:54.360Z,12.47
2022-09-23T20:03:27.250Z,12.45
2022-09-23T20:06:00.063Z,12.43
2022-09-23T20:08:32.108Z,12.40
2022-09-23T20:11:11.661Z,12.38
2022-09-23T20:13:47.213Z,12.32
2022-09-23T20:16:21.031Z,12.29
2022-09-23T20:18:55.818Z,12.26
2022-09-23T20:21:29.425Z,12.22
2022-09-23T20:24:02.023Z,12.18
2022-09-23T20:26:51.701Z,12.15
2022-09-23T20:29:24.658Z,12.12
2022-09-23T20:31:58.714Z,12.07
2022-09-23T20:34:33.884Z,12.02
2022-09-23T20:37:06.174Z,11.95
2022-09-23T20:39:38.494Z,11.90
2022-09-23T20:42:10.528Z,11.85
2022-09-23T20:44:43.320Z,11.80
2022-09-23T20:47:17.054Z,11.77
2022-09-23T20:49:49.891Z,11.72
2022-09-23T20:52:23.026Z,11.69
2022-09-23T20:54:55.119Z,11.65
2022-09-23T20:57:29.517Z,11.62
2022-09-23T21:00:02.140Z,11.60
2022-09-23T21:02:34.527Z,11.56
2022-09-23T21:05:08.059Z,11.51
2022-09-23T21:07:40.283Z,11.45
2022-09-23T21:10:13.256Z,11.38
2022-09-23T21:12:46.175Z,11.35
2022-09-23T21:15:18.271Z,11.31
2022-09-23T21:17:50.338Z,11.30
2022-09-23T21:20:22.500Z,11.27
2022-09-23T21:22:55.384Z,11.25
2022-09-23T21:25:29.077Z,11.24
2022-09-23T21:28:02.391Z,11.21
2022-09-23T21:30:35.157Z,11.17
2022-09-23T21:33:07.503Z,11.11
2022-09-23T21:35:40.497Z,11.05
2022-09-23T21:38:12.588Z,10.99
2022-09-23T21:40:56.971Z,10.95
2022-09-23T21:43:33.713Z,10.91
2022-09-23T21:46:07.838Z,10.87
2022-09-23T21:48:41.975Z,10.82
2022-09-23T21:51:16.895Z,10.76
2022-09-23T21:53:50.222Z,10.67
2022-09-23T21:56:24.786Z,10.58
2022-09-23T21:58:58.350Z,10.52
2022-09-23T22:01:33.788Z,10.45
2022-09-23T22:04:10.534Z,10.38
2022-09-23T22:06:43.338Z,10.29
2022-09-23T22:09:17.554Z,10.23
2022-09-23T22:12:11.261Z,10.18
2022-09-23T22:14:43.590Z,10.12
2022-09-23T22:17:15.837Z,10.07
2022-09-23T22:19:47.887Z,10.00
2022-09-23T22:22:20.690Z,9.94
2022-09-23T22:24:53.192Z,9.90
2022-09-23T22:27:27.332Z,9.84
2022-09-23T22:30:17.015Z,9.79
2022-09-23T22:32:54.949Z,9.73
2022-09-23T22:35:27.355Z,9.69
2022-09-23T22:38:01.140Z,9.67
2022-09-23T22:40:33.312Z,9.63
2022-09-23T22:43:05.556Z,9.59
2022-09-23T22:45:37.730Z,9.54
2022-09-23T22:48:10.119Z,9.49
2022-09-23T22:50:43.062Z,9.45
2022-09-23T22:53:15.107Z,9.40
2022-09-23T22:55:57.671Z,9.36
2022-09-23T22:58:32.495Z,9.32
2022-09-23T23:01:05.549Z,9.30
2022-09-23T23:03:37.765Z,9.28
2022-09-23T23:06:11.287Z,9.25
2022-09-23T23:08:43.343Z,9.22
2022-09-23T23:11:15.502Z,9.20
2022-09-23T23:13:47.599Z,9.17
2022-09-23T23:16:21.526Z,9.15
2022-09-23T23:18:53.971Z,9.13
2022-09-23T23:21:26.312Z,9.13
2022-09-23T23:23:58.367Z,9.14
2022-09-23T23:26:32.118Z,9.13
2022-09-23T23:29:04.680Z,9.12
2022-09-23T23:31:36.842Z,9.09
2022-09-23T23:34:11.962Z,9.07
2022-09-23T23:36:44.361Z,9.07
2022-09-23T23:39:17.051Z,9.07
2022-09-23T23:41:49.419Z,9.04
2022-09-23T23:44:21.530Z,8.98
2022-09-23T23:46:53.769Z,8.94
2022-09-23T23:49:28.744Z,8.93
2022-09-23T23:52:00.806Z,8.90
2022-09-23T23:54:33.412Z,8.87
2022-09-23T23:57:05.461Z,8.84
2022-09-23T23:59:37.750Z,8.83
